createdAt,value
2023-02-19T00:00:24.443Z,59.17
2023-02-19T00:02:50.714Z,59.10
2023-02-19T00:05:16.987Z,60.26
2023-02-19T00:07:43.283Z,60.09
2023-02-19T00:10:09.541Z,60.12
2023-02-19T00:12:35.792Z,59.83
2023-02-19T00:15:02.031Z,59.45
2023-02-19T00:17:28.294Z,60.24
2023-02-19T00:19:54.538Z,60.61
2023-02-19T00:22:20.823Z,59.94
2023-02-19T00:24:49.201Z,60.75
2023-02-19T00:27:15.550Z,60.26
2023-02-19T00:29:41.809Z,60.32
2023-02-19T00:32:08.246Z,60.11
2023-02-19T00:34:34.548Z,60.12
2023-02-19T00:37:00.813Z,60.84
2023-02-19T00:39:27.086Z,59.84
2023-02-19T00:41:53.349Z,60.49
2023-02-19T00:44:19.599Z,60.23
2023-02-19T00:46:45.881Z,60.63
2023-02-19T00:49:12.129Z,60.09
2023-02-19T00:51:38.364Z,60.92
2023-02-19T00:54:04.640Z,60.16
2023-02-19T00:56:30.922Z,60.68
2023-02-19T00:58:57.207Z,60.50
2023-02-19T01:01:23.485Z,60.39
2023-02-19T01:03:49.763Z,60.62
2023-02-19T01:06:16.004Z,61.18
2023-02-19T01:08:42.275Z,61.46
2023-02-19T01:11:08.729Z,61.73
2023-02-19T01:13:35.135Z,61.89
2023-02-19T01:16:01.399Z,61.06
2023-02-19T01:18:27.652Z,61.04
2023-02-19T01:20:53.915Z,61.46
2023-02-19T01:23:20.177Z,61.30
2023-02-19T01:25:46.430Z,61.62
2023-02-19T01:28:12.676Z,61.35
2023-02-19T01:30:38.927Z,61.38
2023-02-19T01:33:05.174Z,61.29
2023-02-19T01:35:31.438Z,61.95
2023-02-19T01:37:57.687Z,61.32
2023-02-19T01:40:23.926Z,61.26
2023-02-19T01:42:50.195Z,61.38
2023-02-19T01:45:16.455Z,60.97
2023-02-19T01:47:42.728Z,60.56
2023-02-19T01:50:08.985Z,61.39
2023-02-19T01:52:35.237Z,61.46
2023-02-19T01:55:01.498Z,61.54
2023-02-19T01:57:27.747Z,61.48
2023-02-19T01:59:53.991Z,61.87
2023-02-19T02:02:20.268Z,62.54
2023-02-19T02:04:46.530Z,62.88
2023-02-19T02:07:12.783Z,63.32
2023-02-19T02:09:39.049Z,62.72
2023-02-19T02:12:05.305Z,63.45
2023-02-19T02:14:31.569Z,63.51
2023-02-19T02:16:57.825Z,62.91
2023-02-19T02:19:24.100Z,62.72
2023-02-19T02:21:50.357Z,62.92
2023-02-19T02:24:16.627Z,63.05
2023-02-19T02:26:42.893Z,62.59
2023-02-19T02:29:09.139Z,62.42
2023-02-19T02:31:35.539Z,62.71
2023-02-19T02:34:01.822Z,62.93
2023-02-19T02:36:28.066Z,62.19
2023-02-19T02:38:54.338Z,62.31
2023-02-19T02:41:20.614Z,61.71
2023-02-19T02:43:46.882Z,62.78
2023-02-19T02:46:13.140Z,63.08
2023-02-19T02:48:39.401Z,62.81
2023-02-19T02:51:05.638Z,63.86
2023-02-19T02:53:31.903Z,63.25
2023-02-19T02:55:58.163Z,63.91
2023-02-19T02:58:24.417Z,63.99
2023-02-19T03:00:50.677Z,63.01
2023-02-19T03:03:16.941Z,63.74
2023-02-19T03:05:43.207Z,62.73
2023-02-19T03:08:09.483Z,62.49
2023-02-19T03:10:35.755Z,61.51
2023-02-19T03:13:02.018Z,61.96
2023-02-19T03:15:28.268Z,61.39
2023-02-19T03:17:54.505Z,61.56
2023-02-19T03:20:20.739Z,62.57
2023-02-19T03:22:46.982Z,62.97
2023-02-19T03:25:13.232Z,63.04
2023-02-19T03:27:39.472Z,63.52
2023-02-19T03:30:05.747Z,63.35
2023-02-19T03:32:32.023Z,64.26
2023-02-19T03:34:58.285Z,64.29
2023-02-19T03:37:24.529Z,64.30
2023-02-19T03:39:50.793Z,63.65
2023-02-19T03:42:17.029Z,63.57
2023-02-19T03:44:43.343Z,63.64
2023-02-19T03:47:09.594Z,63.43
2023-02-19T03:49:35.833Z,63.77
2023-02-19T03:52:02.083Z,63.98
2023-02-19T03:54:28.346Z,63.92
2023-02-19T03:56:54.593Z,64.03
2023-02-19T03:59:20.842Z,63.94
2023-02-19T04:01:47.134Z,63.68
2023-02-19T04:04:13.407Z,63.26
2023-02-19T04:06:39.669Z,63.59
2023-02-19T04:09:05.914Z,63.54
2023-02-19T04:11:32.182Z,64.27
2023-02-19T04:13:58.444Z,63.88
2023-02-19T04:16:24.706Z,64.46
2023-02-19T04:18:50.974Z,64.37
2023-02-19T04:21:17.228Z,64.51
2023-02-19T04:23:43.463Z,63.06
2023-02-19T04:26:09.718Z,62.87
2023-02-19T04:28:36.013Z,61.51
2023-02-19T04:31:02.373Z,60.92
2023-02-19T04:33:28.659Z,61.27
2023-02-19T04:35:54.905Z,60.77
2023-02-19T04:38:21.152Z,61.71
2023-02-19T04:40:47.417Z,61.59
2023-02-19T04:43:13.682Z,61.74
2023-02-19T04:45:39.949Z,62.08
2023-02-19T04:48:06.202Z,61.78
2023-02-19T04:50:32.458Z,61.35
2023-02-19T04:52:58.724Z,61.21
2023-02-19T04:55:24.990Z,61.73
2023-02-19T04:57:51.237Z,61.50
2023-02-19T05:00:17.485Z,60.69
2023-02-19T05:02:43.749Z,60.89
2023-02-19T05:05:09.988Z,60.12
2023-02-19T05:07:36.230Z,59.97
2023-02-19T05:10:02.505Z,59.84
2023-02-19T05:12:28.750Z,60.22
2023-02-19T05:14:54.999Z,60.61
2023-02-19T05:17:21.246Z,59.88
2023-02-19T05:19:47.519Z,60.70
2023-02-19T05:22:13.786Z,60.63
2023-02-19T05:24:40.057Z,61.67
2023-02-19T05:27:06.300Z,62.11
2023-02-19T05:29:32.562Z,61.52
2023-02-19T05:31:58.825Z,61.77
2023-02-19T05:34:25.094Z,61.08
2023-02-19T05:36:51.336Z,60.83
2023-02-19T05:39:17.590Z,61.02
2023-02-19T05:41:43.855Z,60.82
2023-02-19T05:44:10.124Z,59.83
2023-02-19T05:46:36.395Z,58.52
2023-02-19T05:49:02.705Z,58.63
2023-02-19T05:51:28.960Z,59.30
2023-02-19T05:53:55.236Z,59.99
2023-02-19T05:56:21.522Z,60.38
2023-02-19T05:58:47.838Z,61.14
2023-02-19T06:01:14.177Z,61.52
2023-02-19T06:03:40.597Z,61.10
2023-02-19T06:06:06.897Z,61.22
2023-02-19T06:08:33.158Z,61.84
2023-02-19T06:10:59.416Z,61.31
2023-02-19T06:13:25.662Z,62.01
2023-02-19T06:15:51.947Z,61.77
2023-02-19T06:18:18.221Z,62.10
2023-02-19T06:20:44.458Z,62.83
2023-02-19T06:23:10.728Z,63.51
2023-02-19T06:25:36.966Z,64.14
2023-02-19T06:28:03.218Z,63.06
2023-02-19T06:30:29.546Z,63.74
2023-02-19T06:32:55.812Z,63.27
2023-02-19T06:35:22.068Z,63.79
2023-02-19T06:37:48.342Z,64.18
2023-02-19T06:40:14.610Z,63.35
2023-02-19T06:42:40.873Z,63.98
2023-02-19T06:45:07.157Z,63.78
2023-02-19T06:47:33.426Z,63.26
2023-02-19T06:49:59.697Z,62.80
2023-02-19T06:52:25.947Z,62.72
2023-02-19T06:54:52.198Z,62.75
2023-02-19T06:57:18.472Z,63.08
2023-02-19T06:59:44.727Z,63.46
2023-02-19T07:02:10.979Z,63.89
2023-02-19T07:04:37.238Z,63.61
2023-02-19T07:07:03.501Z,63.10
2023-02-19T07:09:29.805Z,63.21
2023-02-19T07:11:56.077Z,63.03
2023-02-19T07:14:22.340Z,63.80
2023-02-19T07:16:48.605Z,62.86
2023-02-19T07:19:14.898Z,63.27
2023-02-19T07:21:41.161Z,63.11
2023-02-19T07:24:07.438Z,63.47
2023-02-19T07:26:33.711Z,62.97
2023-02-19T07:28:59.958Z,62.13
2023-02-19T07:31:26.327Z,62.44
2023-02-19T07:33:52.676Z,62.44
2023-02-19T07:36:18.926Z,62.40
2023-02-19T07:38:45.197Z,63.21
2023-02-19T07:41:11.744Z,62.67
2023-02-19T07:43:38.193Z,62.73
2023-02-19T07:46:04.457Z,62.88
2023-02-19T07:48:30.770Z,62.41
2023-02-19T07:50:57.144Z,63.32
2023-02-19T07:53:23.413Z,63.53
2023-02-19T07:55:49.691Z,63.59
2023-02-19T07:58:15.953Z,63.07
2023-02-19T08:00:42.208Z,63.43
2023-02-19T08:03:08.577Z,62.65
2023-02-19T08:05:34.836Z,60.71
2023-02-19T08:08:01.108Z,61.82
2023-02-19T08:10:27.429Z,61.00
2023-02-19T08:12:53.667Z,60.69
2023-02-19T08:15:22.194Z,61.66
2023-02-19T08:17:48.702Z,61.99
2023-02-19T08:20:14.940Z,61.74
2023-02-19T08:22:41.211Z,60.32
2023-02-19T08:25:07.477Z,60.29
2023-02-19T08:27:33.735Z,60.83
2023-02-19T08:30:00.036Z,61.27
2023-02-19T08:32:26.341Z,60.88
2023-02-19T08:34:52.582Z,61.09
2023-02-19T08:37:18.822Z,60.81
2023-02-19T08:39:45.097Z,61.37
2023-02-19T08:42:11.338Z,61.32
2023-02-19T08:44:37.590Z,61.10
2023-02-19T08:47:03.918Z,61.18
2023-02-19T08:49:30.402Z,61.06
2023-02-19T08:51:56.649Z,60.83
2023-02-19T08:54:22.894Z,60.54
2023-02-19T08:56:49.138Z,61.27
2023-02-19T08:59:15.379Z,60.27
2023-02-19T09:01:41.745Z,60.40
2023-02-19T09:04:08.074Z,59.16
2023-02-19T09:06:34.332Z,60.53
2023-02-19T09:09:00.601Z,59.06
2023-02-19T09:11:26.846Z,60.11
2023-02-19T09:13:53.111Z,59.42
2023-02-19T09:16:19.358Z,60.05
2023-02-19T09:18:45.605Z,60.08
2023-02-19T09:21:12.145Z,59.77
2023-02-19T09:23:38.705Z,60.00
2023-02-19T09:26:04.963Z,58.07
2023-02-19T09:28:31.235Z,59.94
2023-02-19T09:30:57.551Z,58.44
2023-02-19T09:33:23.813Z,59.44
2023-02-19T09:35:50.221Z,58.05
2023-02-19T09:38:16.476Z,59.69
2023-02-19T09:40:42.741Z,57.99
2023-02-19T09:43:08.984Z,59.30
2023-02-19T09:45:35.230Z,58.57
2023-02-19T09:48:01.502Z,58.06
2023-02-19T09:50:27.747Z,58.66
2023-02-19T09:52:53.985Z,58.68
2023-02-19T09:55:20.235Z,58.33
2023-02-19T09:57:46.474Z,57.40
2023-02-19T10:00:12.725Z,57.55
2023-02-19T10:02:38.985Z,56.65
2023-02-19T10:05:05.271Z,57.28
2023-02-19T10:07:31.522Z,56.54
2023-02-19T10:09:57.781Z,57.97
2023-02-19T10:12:24.028Z,58.03
2023-02-19T10:14:50.265Z,56.54
2023-02-19T10:17:16.506Z,56.64
2023-02-19T10:19:42.752Z,57.42
2023-02-19T10:22:09.014Z,56.87
2023-02-19T10:24:37.570Z,56.83
2023-02-19T10:27:04.709Z,56.95
2023-02-19T10:29:30.961Z,56.24
2023-02-19T10:31:57.270Z,56.23
2023-02-19T10:34:23.554Z,55.82
2023-02-19T10:36:49.826Z,56.63
2023-02-19T10:39:16.082Z,56.06
2023-02-19T10:41:44.196Z,55.79
2023-02-19T10:44:10.667Z,53.35
2023-02-19T10:46:36.943Z,53.71
2023-02-19T10:49:03.206Z,54.45
2023-02-19T10:51:29.466Z,53.72
2023-02-19T10:53:55.712Z,53.65
2023-02-19T10:56:21.941Z,53.60
2023-02-19T10:58:48.197Z,53.37
2023-02-19T11:01:14.449Z,54.28
2023-02-19T11:03:40.690Z,53.37
2023-02-19T11:06:06.941Z,54.08
2023-02-19T11:08:33.216Z,53.63
2023-02-19T11:10:59.479Z,54.18
2023-02-19T11:13:25.734Z,54.36
2023-02-19T11:15:52.052Z,53.44
2023-02-19T11:18:18.333Z,53.55
2023-02-19T11:20:44.679Z,53.36
2023-02-19T11:23:10.936Z,52.83
2023-02-19T11:25:37.195Z,53.79
2023-02-19T11:28:03.481Z,53.01
2023-02-19T11:30:29.815Z,53.39
2023-02-19T11:32:56.108Z,51.60
2023-02-19T11:35:22.364Z,52.66
2023-02-19T11:37:48.623Z,52.35
2023-02-19T11:40:14.862Z,51.32
2023-02-19T11:42:41.138Z,51.05
2023-02-19T11:45:07.371Z,51.79
2023-02-19T11:47:33.634Z,51.80
2023-02-19T11:49:59.866Z,50.93
2023-02-19T11:52:26.107Z,52.32
2023-02-19T11:54:52.374Z,53.07
2023-02-19T11:57:18.638Z,51.81
2023-02-19T11:59:44.910Z,52.10
2023-02-19T12:02:11.192Z,51.65
2023-02-19T12:04:37.898Z,50.46
2023-02-19T12:07:04.198Z,50.42
2023-02-19T12:09:30.455Z,50.54
2023-02-19T12:11:56.718Z,50.01
2023-02-19T12:14:22.972Z,50.68
2023-02-19T12:16:49.254Z,50.36
2023-02-19T12:19:15.555Z,50.18
2023-02-19T12:21:41.809Z,49.88
2023-02-19T12:24:08.062Z,49.76
2023-02-19T12:26:34.319Z,50.40
2023-02-19T12:29:00.572Z,50.75
2023-02-19T12:31:26.875Z,48.97
2023-02-19T12:33:53.174Z,48.05
2023-02-19T12:36:19.428Z,48.45
2023-02-19T12:38:45.686Z,48.66
2023-02-19T12:41:11.941Z,48.88
2023-02-19T12:43:38.190Z,49.69
2023-02-19T12:46:04.492Z,49.21
2023-02-19T12:48:30.790Z,49.66
2023-02-19T12:50:57.065Z,48.82
2023-02-19T12:53:23.348Z,49.46
2023-02-19T12:55:49.612Z,48.89
2023-02-19T12:58:15.851Z,46.91
2023-02-19T13:00:42.090Z,47.42
2023-02-19T13:03:08.337Z,48.13
2023-02-19T13:05:34.600Z,49.79
2023-02-19T13:08:00.875Z,48.26
2023-02-19T13:10:27.122Z,47.63
2023-02-19T13:12:53.383Z,47.71
2023-02-19T13:15:19.638Z,47.56
2023-02-19T13:17:45.885Z,46.55
2023-02-19T13:20:12.120Z,46.53
2023-02-19T13:22:38.374Z,45.81
2023-02-19T13:25:04.630Z,45.86
2023-02-19T13:27:30.889Z,46.34
2023-02-19T13:29:57.148Z,46.20
2023-02-19T13:32:23.387Z,45.80
2023-02-19T13:34:49.652Z,46.03
2023-02-19T13:37:15.888Z,45.65
2023-02-19T13:39:42.136Z,45.39
2023-02-19T13:42:08.378Z,44.68
2023-02-19T13:44:34.627Z,45.33
2023-02-19T13:47:00.915Z,45.43
2023-02-19T13:49:27.167Z,45.18
2023-02-19T13:51:53.411Z,45.94
2023-02-19T13:54:19.659Z,45.81
2023-02-19T13:56:45.910Z,45.16
2023-02-19T13:59:12.151Z,45.77
2023-02-19T14:01:38.415Z,46.56
2023-02-19T14:04:04.702Z,46.86
2023-02-19T14:06:30.957Z,47.35
2023-02-19T14:08:57.217Z,45.34
2023-02-19T14:11:23.466Z,44.82
2023-02-19T14:13:49.713Z,44.98
2023-02-19T14:16:15.972Z,44.63
2023-02-19T14:18:42.228Z,44.97
2023-02-19T14:21:08.580Z,44.59
2023-02-19T14:23:34.871Z,45.10
2023-02-19T14:26:01.154Z,45.82
2023-02-19T14:28:27.429Z,45.99
2023-02-19T14:30:53.716Z,46.26
2023-02-19T14:33:19.992Z,46.56
2023-02-19T14:35:46.251Z,46.81
2023-02-19T14:38:12.496Z,46.64
2023-02-19T14:40:38.751Z,47.12
2023-02-19T14:43:04.993Z,46.51
2023-02-19T14:45:31.258Z,46.26
2023-02-19T14:47:57.518Z,45.74
2023-02-19T14:50:23.795Z,44.98
2023-02-19T14:52:50.036Z,45.79
2023-02-19T14:55:16.295Z,45.91
2023-02-19T14:57:42.568Z,46.51
2023-02-19T15:00:08.833Z,45.87
2023-02-19T15:02:35.078Z,45.40
2023-02-19T15:05:01.370Z,44.93
2023-02-19T15:07:27.689Z,45.38
2023-02-19T15:09:53.938Z,44.62
2023-02-19T15:12:20.189Z,44.40
2023-02-19T15:14:46.446Z,43.59
2023-02-19T15:17:12.702Z,43.79
2023-02-19T15:19:38.972Z,43.49
2023-02-19T15:22:05.205Z,42.71
2023-02-19T15:24:31.464Z,43.22
2023-02-19T15:26:57.711Z,43.68
2023-02-19T15:29:23.960Z,43.88
2023-02-19T15:31:50.268Z,42.82
2023-02-19T15:34:16.638Z,43.26
2023-02-19T15:36:42.942Z,43.38
2023-02-19T15:39:09.184Z,43.66
2023-02-19T15:41:35.545Z,43.88
2023-02-19T15:44:01.789Z,43.42
2023-02-19T15:46:28.098Z,42.84
2023-02-19T15:48:54.414Z,42.93
2023-02-19T15:51:20.655Z,43.18
2023-02-19T15:53:46.903Z,43.39
2023-02-19T15:56:13.147Z,43.01
2023-02-19T15:58:39.386Z,43.64
2023-02-19T16:01:05.642Z,43.40
2023-02-19T16:03:32.166Z,44.53
2023-02-19T16:05:58.457Z,43.79
2023-02-19T16:08:24.712Z,44.03
2023-02-19T16:10:50.955Z,44.88
2023-02-19T16:13:17.194Z,44.96
2023-02-19T16:15:43.424Z,43.91
2023-02-19T16:18:09.675Z,43.63
2023-02-19T16:20:35.912Z,43.57
2023-02-19T16:23:02.146Z,44.64
2023-02-19T16:25:28.390Z,44.13
2023-02-19T16:27:54.629Z,44.03
2023-02-19T16:30:20.928Z,45.02
2023-02-19T16:32:47.194Z,45.80
2023-02-19T16:35:13.461Z,46.15
2023-02-19T16:37:40.879Z,46.46
2023-02-19T16:40:07.320Z,47.07
2023-02-19T16:42:33.607Z,46.82
2023-02-19T16:44:59.843Z,47.10
2023-02-19T16:47:26.098Z,47.65
2023-02-19T16:49:52.351Z,47.55
2023-02-19T16:52:18.599Z,47.95
2023-02-19T16:54:44.869Z,47.72
2023-02-19T16:57:11.130Z,48.06
2023-02-19T16:59:37.382Z,47.66
2023-02-19T17:02:03.618Z,47.38
2023-02-19T17:04:29.872Z,47.82
2023-02-19T17:06:56.130Z,48.09
2023-02-19T17:09:22.379Z,48.35
2023-02-19T17:11:48.634Z,48.78
2023-02-19T17:14:14.887Z,49.15
2023-02-19T17:16:41.207Z,48.79
2023-02-19T17:19:07.542Z,49.21
2023-02-19T17:21:33.886Z,48.77
2023-02-19T17:24:00.136Z,48.83
2023-02-19T17:26:26.401Z,48.89
2023-02-19T17:28:52.649Z,49.66
2023-02-19T17:31:19.008Z,49.62
2023-02-19T17:33:45.354Z,50.02
2023-02-19T17:36:11.621Z,50.48
2023-02-19T17:38:37.869Z,49.88
2023-02-19T17:41:04.121Z,50.04
2023-02-19T17:43:30.389Z,50.47
2023-02-19T17:45:56.667Z,50.52
2023-02-19T17:48:22.938Z,50.64
2023-02-19T17:50:49.211Z,51.18
2023-02-19T17:53:15.473Z,50.74
2023-02-19T17:55:41.848Z,51.46
2023-02-19T17:58:08.107Z,51.45
2023-02-19T18:00:34.358Z,51.46
2023-02-19T18:03:00.602Z,51.04
2023-02-19T18:05:26.842Z,51.31
2023-02-19T18:07:53.086Z,51.49
2023-02-19T18:10:19.333Z,51.48
2023-02-19T18:12:45.611Z,51.46
2023-02-19T18:15:11.863Z,51.66
2023-02-19T18:17:38.134Z,51.26
2023-02-19T18:20:04.412Z,51.97
2023-02-19T18:22:30.694Z,51.61
2023-02-19T18:24:56.963Z,51.55
2023-02-19T18:27:23.222Z,51.83
2023-02-19T18:29:49.483Z,51.47
2023-02-19T18:32:15.725Z,51.96
2023-02-19T18:34:41.973Z,51.51
2023-02-19T18:37:08.233Z,51.08
2023-02-19T18:39:34.506Z,51.18
2023-02-19T18:42:00.766Z,51.95
2023-02-19T18:44:27.017Z,51.83
2023-02-19T18:46:53.275Z,52.74
2023-02-19T18:49:19.534Z,52.80
2023-02-19T18:51:45.800Z,52.57
2023-02-19T18:54:12.071Z,52.17
2023-02-19T18:56:38.317Z,52.26
2023-02-19T18:59:04.597Z,52.26
2023-02-19T19:01:30.934Z,51.85
2023-02-19T19:03:57.236Z,52.58
2023-02-19T19:06:23.545Z,52.53
2023-02-19T19:08:49.818Z,52.64
2023-02-19T19:11:16.073Z,52.56
2023-02-19T19:13:42.319Z,52.31
2023-02-19T19:16:08.603Z,53.26
2023-02-19T19:18:34.893Z,53.04
2023-02-19T19:21:01.157Z,53.20
2023-02-19T19:23:27.395Z,53.48
2023-02-19T19:25:53.654Z,53.36
2023-02-19T19:28:19.895Z,53.54
2023-02-19T19:30:46.170Z,53.48
2023-02-19T19:33:14.287Z,53.21
2023-02-19T19:35:40.604Z,53.44
2023-02-19T19:38:06.883Z,53.74
2023-02-19T19:40:33.146Z,53.53
2023-02-19T19:42:59.398Z,52.76
2023-02-19T19:45:25.695Z,52.84
2023-02-19T19:47:51.961Z,52.51
2023-02-19T19:50:18.247Z,52.46
2023-02-19T19:52:44.514Z,52.21
2023-02-19T19:55:10.769Z,51.98
2023-02-19T19:57:39.035Z,51.72
2023-02-19T20:00:06.696Z,51.94
2023-02-19T20:02:32.939Z,52.07
2023-02-19T20:04:59.209Z,52.09
2023-02-19T20:07:25.467Z,52.42
2023-02-19T20:09:51.711Z,51.77
2023-02-19T20:12:17.965Z,52.04
2023-02-19T20:14:44.201Z,51.63
2023-02-19T20:17:10.452Z,51.82
2023-02-19T20:19:36.704Z,51.43
2023-02-19T20:22:02.973Z,51.85
2023-02-19T20:24:29.223Z,52.38
2023-02-19T20:26:55.464Z,52.59
2023-02-19T20:29:21.732Z,53.21
2023-02-19T20:31:48.083Z,53.46
2023-02-19T20:34:14.365Z,53.62
2023-02-19T20:36:40.624Z,53.15
2023-02-19T20:39:06.875Z,53.31
2023-02-19T20:41:33.111Z,53.26
2023-02-19T20:43:59.365Z,53.50
2023-02-19T20:46:25.663Z,54.26
2023-02-19T20:48:52.098Z,53.50
2023-02-19T20:51:18.353Z,54.83
2023-02-19T20:53:44.608Z,54.38
2023-02-19T20:56:11.430Z,54.67
2023-02-19T20:58:37.874Z,54.26
2023-02-19T21:01:04.132Z,55.23
2023-02-19T21:03:30.386Z,55.66
2023-02-19T21:05:56.642Z,55.83
2023-02-19T21:08:22.887Z,54.74
2023-02-19T21:10:49.161Z,54.89
2023-02-19T21:13:15.432Z,54.95
2023-02-19T21:15:41.693Z,55.34
2023-02-19T21:18:07.953Z,55.05
2023-02-19T21:20:34.209Z,55.10
2023-02-19T21:23:00.451Z,54.96
2023-02-19T21:25:26.699Z,55.13
2023-02-19T21:27:52.946Z,55.11
2023-02-19T21:30:19.222Z,55.49
2023-02-19T21:32:45.465Z,55.64
2023-02-19T21:35:11.711Z,55.79
2023-02-19T21:37:37.977Z,56.31
2023-02-19T21:40:04.221Z,56.85
2023-02-19T21:42:30.566Z,56.56
2023-02-19T21:44:56.802Z,56.30
2023-02-19T21:47:23.043Z,56.23
2023-02-19T21:49:49.290Z,56.53
2023-02-19T21:52:15.545Z,56.42
2023-02-19T21:54:41.801Z,56.58
2023-02-19T21:57:09.110Z,57.50
2023-02-19T21:59:35.373Z,57.54
2023-02-19T22:02:01.618Z,56.41
2023-02-19T22:04:27.870Z,56.31
2023-02-19T22:06:54.106Z,56.84
2023-02-19T22:09:20.374Z,56.42
2023-02-19T22:11:46.617Z,56.90
2023-02-19T22:14:12.883Z,56.40
2023-02-19T22:16:39.163Z,57.01
2023-02-19T22:19:05.412Z,57.16
2023-02-19T22:21:31.661Z,57.31
2023-02-19T22:23:57.914Z,56.89
2023-02-19T22:26:24.183Z,56.89
2023-02-19T22:28:50.426Z,57.51
2023-02-19T22:31:16.715Z,57.22
2023-02-19T22:33:42.966Z,57.08
2023-02-19T22:36:09.347Z,57.34
2023-02-19T22:38:35.700Z,57.47
2023-02-19T22:41:01.952Z,57.64
2023-02-19T22:43:28.201Z,58.03
2023-02-19T22:45:54.465Z,58.55
2023-02-19T22:48:29.595Z,58.29
2023-02-19T22:50:56.478Z,58.42
2023-02-19T22:53:22.734Z,57.75
2023-02-19T22:55:48.987Z,57.51
2023-02-19T22:58:15.245Z,57.87
2023-02-19T23:00:41.488Z,58.01
2023-02-19T23:03:07.729Z,57.48
2023-02-19T23:05:33.981Z,57.30
2023-02-19T23:08:00.260Z,57.36
2023-02-19T23:10:26.516Z,57.15
2023-02-19T23:12:52.757Z,57.39
2023-02-19T23:15:19.016Z,58.05
2023-02-19T23:17:45.277Z,57.64
2023-02-19T23:20:11.524Z,57.84
2023-02-19T23:22:37.766Z,57.47
2023-02-19T23:25:04.014Z,57.68
2023-02-19T23:27:30.258Z,57.58
2023-02-19T23:29:56.514Z,57.75
2023-02-19T23:32:22.771Z,57.63
2023-02-19T23:34:49.009Z,57.37
2023-02-19T23:37:15.263Z,57.54
2023-02-19T23:39:41.522Z,57.61
2023-02-19T23:42:07.776Z,57.65
2023-02-19T23:44:34.039Z,57.80
2023-02-19T23:47:00.311Z,57.55
2023-02-19T23:49:26.568Z,57.50
2023-02-19T23:51:52.832Z,57.54
2023-02-19T23:54:19.092Z,57.17
2023-02-19T23:56:45.355Z,57.15
2023-02-19T23:59:11.653Z,56.92
